LIMC/MXP METAR and TAF weather

Enter ICAO airport designator
Station Type Date Time Source
LIMC METAR 2019/10/14 06:20 UTC NOAA

LIMC 140620Z 02001KT 9999 BKN060 14/12 Q1023 NOSIG


Station Type Date Time Source
LIMC Decoded METAR 2019/10/14 06:20 UTC NOAA

Milano / Malpensa, Italy (LIMC) 45-37N 008-44E 211M
Oct 14, 2019 - 02:20 AM EDT / 2019.10.14 0620 UTC
Wind: from the NNE (020 degrees) at 1 MPH (1 KT):0
Visibility: greater than 7 mile(s):0
Sky conditions: mostly cloudy
Temperature: 57 F (14 C)
Dew Point: 53 F (12 C)
Relative Humidity: 87%
Pressure (altimeter): 30.21 in. Hg (1023 hPa)
ob: LIMC 140620Z 02001KT 9999 BKN060 14/12 Q1023 NOSIG
cycle: 6

Station Type Date Time Source
LIMC TAF 2019/10/14 06:21 UTC NOAA

TAF LIMC 140500Z 1406/1512 VRB05KT 7000 SCT020 BKN050
BECMG 1500/1503 RA
TEMPO 1506/1512 4000 SHRA BKN010

Example: see airport list